Time;durP1;ratioP1;P1;durP2;ratioP2;P2;SDS_P1;SDS_P2;PMS_P1;PMS_P2;Temp;Humidity;BMP_temperature;BMP_pressure;BME280_temperature;BME280_humidity;BME280_pressure;Samples;Min_cycle;Max_cycle;Signal;HPM_P1;HPM_P2
2022/10/07 00:00:23;;;;;;;4.00;2.10;;;7.40;99.90;;;;;;5056930;28;20559;-78
2022/10/07 00:02:49;;;;;;;7.03;1.77;;;7.40;99.90;;;;;;5056740;28;20172;-78
2022/10/07 00:05:14;;;;;;;5.97;1.60;;;7.40;99.90;;;;;;5056597;28;20258;-78
2022/10/07 00:07:40;;;;;;;5.67;2.27;;;7.30;99.90;;;;;;5056530;28;20176;-78
2022/10/07 00:10:06;;;;;;;4.50;1.90;;;7.30;99.90;;;;;;5056501;28;20214;-78
2022/10/07 00:12:32;;;;;;;6.00;1.97;;;7.30;99.90;;;;;;5056289;28;20186;-78
2022/10/07 00:14:58;;;;;;;3.13;1.60;;;7.30;99.90;;;;;;5055039;28;20199;-78
2022/10/07 00:17:23;;;;;;;6.33;2.10;;;7.20;99.90;;;;;;5056367;28;20175;-78
2022/10/07 00:19:49;;;;;;;7.33;1.83;;;7.20;99.90;;;;;;5056205;28;20199;-78
2022/10/07 00:22:14;;;;;;;11.03;2.30;;;7.20;99.90;;;;;;5056312;28;20225;-78
2022/10/07 00:24:40;;;;;;;10.23;2.23;;;7.20;99.90;;;;;;5055080;28;20195;-78
2022/10/07 00:27:05;;;;;;;7.17;2.23;;;7.20;99.90;;;;;;5055045;28;20642;-78
2022/10/07 00:29:31;;;;;;;6.53;2.13;;;7.20;99.90;;;;;;5055203;28;20665;-78
2022/10/07 00:31:57;;;;;;;5.37;2.27;;;7.20;99.90;;;;;;5054888;28;20171;-78
2022/10/07 00:34:22;;;;;;;8.07;2.27;;;7.20;99.90;;;;;;5056266;28;20187;-78
2022/10/07 00:36:49;;;;;;;7.17;1.97;;;7.20;99.90;;;;;;5055895;28;20172;-78
2022/10/07 00:39:16;;;;;;;7.30;2.03;;;7.10;99.90;;;;;;5055798;28;20187;-78
2022/10/07 00:41:51;;;;;;;5.27;1.93;;;7.10;99.90;;;;;;5054911;28;20186;-78
2022/10/07 00:44:34;;;;;;;12.13;1.97;;;7.10;99.90;;;;;;5056235;28;20205;-77
2022/10/07 00:47:11;;;;;;;4.50;1.77;;;7.10;99.90;;;;;;5055089;28;20309;-78
2022/10/07 00:49:45;;;;;;;5.67;2.10;;;7.10;99.90;;;;;;5056101;28;20333;-78
2022/10/07 00:52:13;;;;;;;9.03;2.60;;;7.10;99.90;;;;;;5054798;28;20634;-78
2022/10/07 00:54:39;;;;;;;6.47;2.07;;;7.10;99.90;;;;;;5056081;28;20194;-78
2022/10/07 00:57:05;;;;;;;5.07;1.87;;;7.10;99.90;;;;;;5056319;28;20218;-78
2022/10/07 00:59:31;;;;;;;5.57;2.20;;;7.10;99.90;;;;;;5056102;28;20191;-78
2022/10/07 01:01:56;;;;;;;8.27;1.93;;;7.10;99.90;;;;;;5055980;28;20180;-78
2022/10/07 01:04:22;;;;;;;4.70;2.43;;;7.00;99.90;;;;;;5055916;28;20186;-78
2022/10/07 01:06:47;;;;;;;9.60;2.10;;;7.00;99.90;;;;;;5056102;28;20178;-78
2022/10/07 01:09:13;;;;;;;11.10;2.37;;;7.00;99.90;;;;;;5054505;28;20696;-78
2022/10/07 01:11:46;;;;;;;4.67;2.00;;;7.00;99.90;;;;;;5056279;28;20171;-78
2022/10/07 01:14:41;;;;;;;4.03;2.00;;;7.00;99.90;;;;;;5055524;28;20296;-78
2022/10/07 01:17:22;;;;;;;12.17;2.13;;;7.00;99.90;;;;;;5056060;28;20160;-78
2022/10/07 01:20:15;;;;;;;4.97;2.07;;;7.00;99.90;;;;;;5054303;28;20311;-78
2022/10/07 01:22:53;;;;;;;4.83;2.00;;;7.00;99.90;;;;;;5054172;28;20170;-78
2022/10/07 01:25:43;;;;;;;8.30;3.00;;;7.00;99.90;;;;;;5054195;28;20663;-78
2022/10/07 01:28:18;;;;;;;5.27;2.10;;;6.90;99.90;;;;;;5055616;28;20167;-78
2022/10/07 01:30:51;;;;;;;6.77;2.67;;;6.90;99.90;;;;;;5054139;28;20202;-78
2022/10/07 01:33:20;;;;;;;4.37;2.13;;;6.90;99.90;;;;;;5055771;28;20225;-78
2022/10/07 01:35:48;;;;;;;10.50;2.77;;;6.90;99.90;;;;;;5053738;28;20673;-78
2022/10/07 01:38:17;;;;;;;5.93;2.53;;;6.80;99.90;;;;;;5053819;28;20168;-78
2022/10/07 01:40:47;;;;;;;7.57;2.40;;;6.80;99.90;;;;;;5055230;28;20210;-78
2022/10/07 01:43:19;;;;;;;3.27;1.80;;;6.80;99.90;;;;;;5055011;28;20216;-78
2022/10/07 01:45:46;;;;;;;8.00;2.50;;;6.80;99.90;;;;;;5054982;28;20183;-78
2022/10/07 01:48:12;;;;;;;4.00;1.93;;;6.80;99.90;;;;;;5055315;28;20225;-78
2022/10/07 01:50:38;;;;;;;7.30;2.13;;;6.80;99.90;;;;;;5054851;28;20195;-78
2022/10/07 01:53:56;;;;;;;5.73;2.47;;;6.80;99.90;;;;;;5054826;28;20176;-77
2022/10/07 01:56:39;;;;;;;5.23;2.40;;;6.80;99.90;;;;;;4996434;28;20196;-78
2022/10/07 01:59:32;;;;;;;4.37;1.83;;;6.80;99.90;;;;;;5013070;28;20360;-78
2022/10/07 02:02:28;;;;;;;6.03;1.93;;;6.80;99.90;;;;;;5044873;28;20595;-78
2022/10/07 02:05:11;;;;;;;8.73;2.73;;;6.90;99.90;;;;;;5052917;28;20203;-78
2022/10/07 02:08:14;;;;;;;5.00;2.23;;;6.90;99.90;;;;;;5053232;28;20652;-78
2022/10/07 02:11:10;;;;;;;4.67;2.10;;;6.80;99.90;;;;;;5054781;28;20191;-78
2022/10/07 02:13:48;;;;;;;8.97;2.60;;;6.80;99.90;;;;;;5053236;28;20168;-78
2022/10/07 02:16:18;;;;;;;4.50;1.87;;;6.80;99.90;;;;;;5054905;28;20186;-78
2022/10/07 02:18:47;;;;;;;5.23;2.00;;;6.80;99.90;;;;;;5052882;28;20187;-78
2022/10/07 02:21:17;;;;;;;6.30;2.20;;;6.80;99.90;;;;;;5053314;28;20633;-78
2022/10/07 02:23:45;;;;;;;5.53;2.30;;;6.80;99.90;;;;;;5053137;28;20263;-78
2022/10/07 02:26:13;;;;;;;6.13;2.20;;;6.80;99.90;;;;;;5054087;28;20160;-78
2022/10/07 02:28:42;;;;;;;9.07;2.67;;;6.90;99.90;;;;;;5054221;28;20203;-78
2022/10/07 02:31:11;;;;;;;9.53;2.30;;;6.90;99.90;;;;;;5054149;28;20168;-78
2022/10/07 02:33:38;;;;;;;10.07;2.43;;;6.90;99.90;;;;;;5053033;28;20176;-78
2022/10/07 02:36:10;;;;;;;6.00;2.33;;;7.00;99.90;;;;;;5054266;28;20202;-77
2022/10/07 02:38:38;;;;;;;7.23;2.27;;;7.00;99.90;;;;;;5053872;28;20160;-78
2022/10/07 02:41:32;;;;;;;4.93;2.27;;;7.00;99.90;;;;;;5052369;28;20195;-77
2022/10/07 02:44:03;;;;;;;5.63;2.50;;;7.10;99.90;;;;;;5054037;28;20171;-78
2022/10/07 02:46:41;;;;;;;7.47;2.20;;;7.10;99.90;;;;;;5052503;28;20166;-78
2022/10/07 02:49:10;;;;;;;7.03;2.30;;;7.20;99.90;;;;;;5054223;28;20187;-78
2022/10/07 02:51:40;;;;;;;4.00;1.80;;;7.20;99.90;;;;;;5052491;28;20172;-78
2022/10/07 02:54:06;;;;;;;8.77;2.50;;;7.20;99.90;;;;;;5053628;28;20171;-78
2022/10/07 02:56:35;;;;;;;5.80;2.47;;;7.20;99.90;;;;;;5053498;28;20638;-78
2022/10/07 02:59:04;;;;;;;7.67;2.10;;;7.20;99.90;;;;;;5052244;28;20677;-78
2022/10/07 03:01:36;;;;;;;11.13;2.60;;;7.20;99.90;;;;;;5052358;28;20546;-77
2022/10/07 03:04:01;;;;;;;8.63;2.03;;;7.20;99.90;;;;;;5053511;28;20739;-77
2022/10/07 03:06:30;;;;;;;5.77;2.40;;;7.20;99.90;;;;;;5052265;28;20175;-78
2022/10/07 03:08:56;;;;;;;7.43;2.53;;;7.10;99.90;;;;;;5053320;28;20634;-78
2022/10/07 03:11:23;;;;;;;3.57;1.93;;;7.20;99.90;;;;;;5053705;28;20494;-77
2022/10/07 03:13:48;;;;;;;4.90;1.90;;;7.10;99.90;;;;;;5053504;28;20176;-78
2022/10/07 03:16:14;;;;;;;4.10;2.30;;;7.10;99.90;;;;;;5051343;28;20175;-78
2022/10/07 03:18:40;;;;;;;8.30;2.20;;;7.10;99.90;;;;;;5053596;28;20229;-78
2022/10/07 03:21:06;;;;;;;9.50;1.70;;;7.00;99.90;;;;;;5052501;28;20184;-78
2022/10/07 03:23:32;;;;;;;5.50;2.30;;;7.00;99.90;;;;;;5052469;28;20320;-78
2022/10/07 03:25:58;;;;;;;4.87;2.60;;;7.00;99.90;;;;;;5051389;28;20186;-78
2022/10/07 03:28:26;;;;;;;10.87;2.17;;;7.00;99.90;;;;;;5052489;28;20182;-78
2022/10/07 03:30:52;;;;;;;5.10;2.03;;;7.00;99.90;;;;;;5052232;28;20245;-78
2022/10/07 03:33:20;;;;;;;7.03;2.20;;;6.90;99.90;;;;;;5051066;28;20183;-78
2022/10/07 03:35:45;;;;;;;4.97;2.40;;;6.90;99.90;;;;;;5052146;28;20191;-78
2022/10/07 03:38:11;;;;;;;8.57;2.40;;;6.90;99.90;;;;;;5052254;28;20675;-78
2022/10/07 03:40:37;;;;;;;8.93;2.00;;;6.90;99.90;;;;;;5051066;28;20237;-78
2022/10/07 03:43:04;;;;;;;13.83;2.60;;;6.80;99.90;;;;;;5052237;28;20171;-78
2022/10/07 03:45:30;;;;;;;4.70;2.20;;;6.90;99.90;;;;;;5052109;28;20175;-78
2022/10/07 03:47:56;;;;;;;7.03;2.23;;;6.90;99.90;;;;;;5052110;28;20179;-78
2022/10/07 03:50:22;;;;;;;5.77;2.30;;;6.80;99.90;;;;;;5052103;28;20194;-78
2022/10/07 03:52:48;;;;;;;6.40;2.17;;;6.80;99.90;;;;;;5051957;28;20180;-78
2022/10/07 03:55:15;;;;;;;5.00;2.23;;;6.70;99.90;;;;;;5051967;28;20219;-77
2022/10/07 03:57:50;;;;;;;6.10;1.97;;;6.70;99.90;;;;;;5052122;28;20309;-78
2022/10/07 04:00:17;;;;;;;7.07;2.10;;;6.80;99.90;;;;;;5052140;28;20192;-78
2022/10/07 04:02:42;;;;;;;6.70;1.97;;;6.70;99.90;;;;;;5051831;28;20222;-78
2022/10/07 04:05:09;;;;;;;9.87;1.97;;;6.80;99.90;;;;;;5050494;28;20179;-77
2022/10/07 04:07:34;;;;;;;4.20;1.90;;;6.70;99.90;;;;;;5051900;28;20170;-78
2022/10/07 04:10:00;;;;;;;9.63;2.00;;;6.70;99.90;;;;;;5050585;28;20199;-78
2022/10/07 04:12:25;;;;;;;10.57;1.97;;;6.70;99.90;;;;;;5051801;28;20183;-78
2022/10/07 04:14:51;;;;;;;7.97;2.00;;;6.60;99.90;;;;;;5051914;28;20222;-77
2022/10/07 04:17:20;;;;;;;4.63;1.70;;;6.70;99.90;;;;;;5051926;28;20634;-78
2022/10/07 04:19:46;;;;;;;9.33;2.07;;;6.70;99.90;;;;;;5016128;28;1031856;-78
2022/10/07 04:22:11;;;;;;;7.30;2.20;;;6.60;99.90;;;;;;5051267;28;20180;-78
2022/10/07 04:24:37;;;;;;;6.87;1.73;;;6.70;99.90;;;;;;5052968;28;20654;-78
2022/10/07 04:27:03;;;;;;;3.30;1.90;;;6.70;99.90;;;;;;5052822;28;20186;-78
2022/10/07 04:29:30;;;;;;;8.77;2.07;;;6.70;99.90;;;;;;5054891;28;20196;-78
2022/10/07 04:31:57;;;;;;;5.07;2.20;;;6.60;99.90;;;;;;5056404;28;20179;-78
2022/10/07 04:34:22;;;;;;;6.80;2.27;;;6.60;99.90;;;;;;5056607;28;20642;-78
2022/10/07 04:36:48;;;;;;;8.70;1.93;;;6.60;99.90;;;;;;5054824;28;20172;-78
2022/10/07 04:39:13;;;;;;;4.33;1.90;;;6.70;99.90;;;;;;5054789;28;20649;-78
2022/10/07 04:41:39;;;;;;;7.57;2.07;;;6.60;99.90;;;;;;5056302;28;20175;-78
2022/10/07 04:44:04;;;;;;;5.47;2.07;;;6.60;99.90;;;;;;5056180;28;20258;-78
2022/10/07 04:46:31;;;;;;;6.97;2.53;;;6.60;99.90;;;;;;5056330;28;20203;-78
2022/10/07 04:48:57;;;;;;;8.20;1.93;;;6.60;99.90;;;;;;5055236;28;20187;-78
2022/10/07 04:51:23;;;;;;;7.40;2.23;;;6.70;99.90;;;;;;5055961;28;20164;-78
2022/10/07 04:53:51;;;;;;;3.97;1.80;;;6.70;99.90;;;;;;5054632;28;20652;-78
2022/10/07 04:56:18;;;;;;;3.20;1.87;;;6.60;99.90;;;;;;5054656;28;20180;-77
2022/10/07 04:58:44;;;;;;;6.47;2.43;;;6.60;99.90;;;;;;5055597;28;20187;-77
2022/10/07 05:01:10;;;;;;;6.43;2.37;;;6.50;99.90;;;;;;5055604;28;20249;-77
2022/10/07 05:03:40;;;;;;;6.73;1.87;;;6.50;99.90;;;;;;5055804;28;20328;-77
2022/10/07 05:06:07;;;;;;;10.00;1.70;;;6.50;99.90;;;;;;5055457;28;20182;-78
2022/10/07 05:08:32;;;;;;;5.60;2.33;;;6.50;99.90;;;;;;5055425;28;20236;-77
2022/10/07 05:10:59;;;;;;;6.87;2.00;;;6.50;99.90;;;;;;5053864;28;20645;-77
2022/10/07 05:13:26;;;;;;;7.03;1.80;;;6.50;99.90;;;;;;5055122;28;20179;-77
2022/10/07 05:15:57;;;;;;;3.50;2.03;;;6.50;99.90;;;;;;5053694;28;20731;-77
2022/10/07 05:18:23;;;;;;;4.50;1.77;;;6.50;99.90;;;;;;5055000;28;20178;-77
2022/10/07 05:20:49;;;;;;;9.17;2.80;;;6.60;99.90;;;;;;5109903;22;20261;-93
2022/10/07 05:23:17;;;;;;;4.97;2.07;;;6.60;99.90;;;;;;5080254;28;20175;-92
2022/10/07 05:25:43;;;;;;;5.20;2.20;;;6.60;99.90;;;;;;5064562;28;20201;-93
2022/10/07 05:28:13;;;;;;;3.53;2.17;;;6.60;99.90;;;;;;5080149;28;20652;-92
2022/10/07 05:30:40;;;;;;;7.60;2.37;;;6.60;99.90;;;;;;5064859;28;20174;-93
2022/10/07 05:33:06;;;;;;;6.27;2.17;;;6.60;99.90;;;;;;5061607;28;20224;-93
2022/10/07 05:35:32;;;;;;;9.13;2.97;;;6.60;99.90;;;;;;5062185;28;20218;-93
2022/10/07 05:37:59;;;;;;;10.13;2.13;;;6.60;99.90;;;;;;5079990;28;20175;-93
2022/10/07 05:40:25;;;;;;;5.33;1.97;;;6.60;99.90;;;;;;5061523;28;20193;-93
2022/10/07 05:42:51;;;;;;;4.43;2.13;;;6.60;99.90;;;;;;5080311;28;20171;-93
2022/10/07 05:45:17;;;;;;;6.57;2.10;;;6.50;99.90;;;;;;5060581;28;20219;-92
2022/10/07 05:47:42;;;;;;;3.80;2.27;;;6.50;99.90;;;;;;5045148;28;20676;-92
2022/10/07 05:50:08;;;;;;;6.73;2.20;;;6.50;99.90;;;;;;5038416;28;20186;-92
2022/10/07 05:52:35;;;;;;;5.40;1.87;;;6.50;99.90;;;;;;5056177;28;20579;-93
2022/10/07 05:55:00;;;;;;;4.63;2.40;;;6.50;99.90;;;;;;5038240;28;20237;-92
2022/10/07 05:57:26;;;;;;;5.03;2.50;;;6.50;99.90;;;;;;5038530;28;20180;-92
2022/10/07 05:59:51;;;;;;;5.90;2.77;;;6.50;99.90;;;;;;5039804;28;20171;-92
2022/10/07 06:02:20;;;;;;;4.50;2.23;;;6.60;99.90;;;;;;5041527;28;20183;-92
2022/10/07 06:04:46;;;;;;;4.67;2.20;;;6.60;99.90;;;;;;5040492;28;20321;-92
2022/10/07 06:07:12;;;;;;;8.67;2.63;;;6.90;99.90;;;;;;5039614;28;20649;-92
2022/10/07 06:15:08;;;;;;;4.60;2.57;;;6.60;99.90;;;;;;5055941;28;20218;-92
2022/10/07 06:17:34;;;;;;;7.37;2.60;;;6.70;99.90;;;;;;5051941;28;20194;-92
2022/10/07 06:20:00;;;;;;;9.73;2.70;;;6.80;99.90;;;;;;5075865;28;20198;-92
2022/10/07 06:22:26;;;;;;;7.10;3.00;;;6.80;99.90;;;;;;5080533;28;20185;-92
2022/10/07 06:25:01;;;;;;;9.23;3.00;;;6.80;99.90;;;;;;5065844;28;20204;-92
2022/10/07 06:27:27;;;;;;;7.93;2.70;;;6.80;99.90;;;;;;5063350;28;20181;-92
2022/10/07 06:29:52;;;;;;;8.40;2.97;;;6.80;99.90;;;;;;5059935;28;20182;-92
2022/10/07 06:32:18;;;;;;;7.33;2.87;;;6.90;99.90;;;;;;5060203;28;20576;-92
2022/10/07 06:34:44;;;;;;;15.23;3.23;;;6.90;99.90;;;;;;5058144;28;20210;-92
2022/10/07 06:37:09;;;;;;;8.23;3.17;;;7.00;99.90;;;;;;5060113;28;20224;-92
2022/10/07 06:39:35;;;;;;;6.30;3.20;;;7.00;99.90;;;;;;5060518;28;20181;-92
2022/10/07 06:42:00;;;;;;;11.33;3.77;;;7.00;99.90;;;;;;5060072;28;20209;-92
2022/10/07 06:44:27;;;;;;;9.87;3.83;;;7.30;99.90;;;;;;5076612;28;20206;-92
2022/10/07 06:46:53;;;;;;;7.83;2.83;;;7.20;99.90;;;;;;5077651;28;20176;-92
2022/10/07 06:49:18;;;;;;;9.57;4.00;;;7.10;99.90;;;;;;5076684;28;20205;-92
2022/10/07 06:51:45;;;;;;;8.23;3.47;;;7.20;99.90;;;;;;5058263;28;20299;-93
2022/10/07 06:54:11;;;;;;;8.00;3.53;;;7.20;99.90;;;;;;5076345;28;20171;-92
2022/10/07 06:56:37;;;;;;;15.03;3.73;;;7.30;99.90;;;;;;5058316;28;20181;-92
2022/10/07 06:59:03;;;;;;;13.40;3.23;;;7.30;99.90;;;;;;5058598;28;20565;-92
2022/10/07 07:01:29;;;;;;;10.93;3.20;;;7.40;99.90;;;;;;5074651;28;20269;-93
2022/10/07 07:03:58;;;;;;;7.40;3.07;;;7.40;99.90;;;;;;5073495;28;20174;-92
2022/10/07 07:06:24;;;;;;;12.33;4.03;;;7.50;99.90;;;;;;5058924;28;20270;-91
2022/10/07 07:08:50;;;;;;;14.97;3.17;;;7.50;99.90;;;;;;5058444;28;20190;-93
2022/10/07 07:11:35;;;;;;;11.37;3.37;;;7.60;99.90;;;;;;5058300;28;20231;-92
2022/10/07 07:14:02;;;;;;;7.30;3.60;;;7.60;99.90;;;;;;5074573;28;20169;-93
2022/10/07 07:16:29;;;;;;;8.10;2.90;;;7.70;99.90;;;;;;5076353;28;20175;-92
2022/10/07 07:19:02;;;;;;;12.23;3.37;;;7.70;99.90;;;;;;5074791;28;20179;-92
2022/10/07 07:21:29;;;;;;;9.37;3.47;;;7.80;99.90;;;;;;5048904;28;20298;-93
2022/10/07 07:23:54;;;;;;;14.10;3.83;;;7.90;99.90;;;;;;5040900;28;20630;-93
2022/10/07 07:26:20;;;;;;;5.43;3.10;;;7.90;99.90;;;;;;5039237;28;20243;-92
2022/10/07 07:29:03;;;;;;;9.97;3.33;;;8.00;99.90;;;;;;5064666;28;20536;-93
2022/10/07 07:31:31;;;;;;;11.90;3.20;;;8.10;99.90;;;;;;5046076;28;20171;-92
2022/10/07 07:34:00;;;;;;;6.43;3.17;;;8.10;99.90;;;;;;5054983;28;20183;-93
2022/10/07 07:36:28;;;;;;;10.67;3.97;;;8.20;99.90;;;;;;5048198;28;20208;-94
2022/10/07 07:38:59;;;;;;;11.37;2.83;;;8.30;99.90;;;;;;5045502;28;20198;-94
2022/10/07 07:41:28;;;;;;;9.97;3.13;;;8.30;99.90;;;;;;5066701;28;20206;-94
2022/10/07 07:43:56;;;;;;;11.23;3.67;;;8.40;99.90;;;;;;5050917;28;20239;-94
2022/10/07 07:46:30;;;;;;;10.10;3.10;;;8.60;99.90;;;;;;5051950;28;21111;-93
2022/10/07 07:48:57;;;;;;;8.17;3.20;;;8.60;99.90;;;;;;5069294;28;20175;-94
2022/10/07 07:51:23;;;;;;;8.90;3.33;;;8.60;99.90;;;;;;5068419;28;20186;-94
2022/10/07 07:53:49;;;;;;;10.43;3.53;;;8.50;99.90;;;;;;5080953;28;20274;-94
2022/10/07 07:56:15;;;;;;;8.03;3.40;;;8.70;99.90;;;;;;5079855;28;20210;-94
2022/10/07 07:58:41;;;;;;;10.40;3.70;;;8.80;99.90;;;;;;5079771;28;20182;-94
2022/10/07 08:01:10;;;;;;;13.80;3.60;;;8.90;99.90;;;;;;5061647;28;20194;-94
2022/10/07 08:03:36;;;;;;;10.70;3.57;;;9.00;99.90;;;;;;5066802;28;20207;-94
2022/10/07 08:06:03;;;;;;;9.80;3.57;;;9.10;99.90;;;;;;5070065;28;20221;-94
2022/10/07 08:08:30;;;;;;;15.03;4.07;;;9.10;99.90;;;;;;5067015;28;20175;-93
2022/10/07 08:10:57;;;;;;;8.60;3.03;;;9.40;99.90;;;;;;5071678;28;20205;-92
2022/10/07 08:13:23;;;;;;;13.00;3.30;;;9.30;99.90;;;;;;5100159;28;20167;-93
2022/10/07 08:15:54;;;;;;;13.70;3.07;;;9.30;99.90;;;;;;5074001;28;20290;-94
2022/10/07 08:18:20;;;;;;;13.83;3.70;;;9.40;99.90;;;;;;5071031;28;20174;-93
2022/10/07 08:20:57;;;;;;;16.10;3.70;;;9.50;99.90;;;;;;5071278;28;20198;-93
2022/10/07 08:23:25;;;;;;;8.83;2.90;;;9.60;99.90;;;;;;5071248;28;20190;-94
2022/10/07 08:25:58;;;;;;;7.50;3.17;;;9.70;99.90;;;;;;5069201;28;20207;-94
2022/10/07 08:28:24;;;;;;;11.90;3.00;;;9.80;99.90;;;;;;5068916;28;20175;-94
2022/10/07 08:30:51;;;;;;;8.20;3.10;;;9.80;99.90;;;;;;5070677;28;20213;-94
2022/10/07 08:33:17;;;;;;;12.23;3.53;;;9.80;99.90;;;;;;5069221;28;20187;-94
2022/10/07 08:35:48;;;;;;;10.67;3.53;;;10.00;99.90;;;;;;5072848;28;20206;-94
2022/10/07 08:38:14;;;;;;;6.73;3.10;;;10.00;99.90;;;;;;5091546;28;20171;-94
2022/10/07 08:40:54;;;;;;;19.17;3.63;;;10.10;99.90;;;;;;5069645;28;20230;-93
2022/10/07 08:43:22;;;;;;;18.00;4.43;;;10.20;99.90;;;;;;5087985;28;20155;-94
2022/10/07 08:45:51;;;;;;;8.63;3.40;;;10.20;99.90;;;;;;5070610;28;20206;-93
2022/10/07 08:48:24;;;;;;;11.33;4.17;;;10.50;99.90;;;;;;5088406;28;20171;-93
2022/10/07 08:51:15;;;;;;;16.10;3.53;;;10.50;99.90;;;;;;5071258;28;20171;-94
2022/10/07 08:53:43;;;;;;;12.13;3.87;;;10.60;99.90;;;;;;5067920;28;20175;-94
2022/10/07 08:56:19;;;;;;;13.03;3.47;;;10.80;99.90;;;;;;5068534;28;20210;-94
2022/10/07 08:59:20;;;;;;;8.33;3.00;;;10.90;99.90;;;;;;5068558;28;20230;-93
2022/10/07 09:02:27;;;;;;;11.50;3.40;;;11.00;99.90;;;;;;5086839;28;20228;-94
2022/10/07 09:05:04;;;;;;;10.03;3.17;;;11.10;99.90;;;;;;5069326;28;20222;-93
2022/10/07 09:07:36;;;;;;;10.03;2.80;;;11.30;99.90;;;;;;5076098;28;20170;-93
2022/10/07 09:10:08;;;;;;;9.50;3.20;;;11.40;99.90;;;;;;5093286;28;20185;-94
2022/10/07 09:12:37;;;;;;;13.27;3.60;;;11.50;99.90;;;;;;5066524;28;20704;-94
2022/10/07 09:15:05;;;;;;;11.37;3.37;;;11.50;99.90;;;;;;5064555;28;20207;-93
2022/10/07 09:17:42;;;;;;;9.40;3.10;;;11.60;99.90;;;;;;5078924;28;20262;-91
2022/10/07 09:20:25;;;;;;;13.73;2.90;;;11.70;99.90;;;;;;5057586;28;20218;-91
2022/10/07 09:22:56;;;;;;;8.60;3.03;;;11.90;99.90;;;;;;5063350;28;20190;-94
2022/10/07 09:25:24;;;;;;;11.63;2.93;;;12.00;99.90;;;;;;5078754;28;20186;-94
2022/10/07 09:27:51;;;;;;;12.57;2.90;;;11.90;99.90;;;;;;5097713;28;20179;-94
2022/10/07 09:30:18;;;;;;;7.93;2.77;;;12.30;99.90;;;;;;5081812;28;20184;-93
2022/10/07 09:32:47;;;;;;;7.30;2.93;;;12.30;99.90;;;;;;5100754;28;20167;-94
2022/10/07 09:35:22;;;;;;;10.77;2.27;;;12.50;99.90;;;;;;5100394;28;20203;-93
2022/10/07 09:37:55;;;;;;;11.33;2.20;;;12.50;99.90;;;;;;5083109;28;20165;-94
2022/10/07 09:40:33;;;;;;;12.33;3.53;;;12.50;99.90;;;;;;5076200;28;20175;-93
2022/10/07 09:42:59;;;;;;;9.90;2.27;;;12.70;99.90;;;;;;5102288;23;20594;-81
2022/10/07 09:45:30;;;;;;;10.87;2.87;;;12.80;99.90;;;;;;5100128;28;20189;-79
2022/10/07 09:48:06;;;;;;;9.53;2.60;;;12.90;99.90;;;;;;5095260;28;20708;-78
2022/10/07 09:50:31;;;;;;;11.80;2.40;;;13.10;99.90;;;;;;5098895;28;20334;-78
2022/10/07 09:52:57;;;;;;;9.27;2.23;;;13.20;99.90;;;;;;5099319;28;20257;-79
2022/10/07 09:55:31;;;;;;;8.90;2.27;;;13.40;99.90;;;;;;5099531;28;20198;-78
2022/10/07 09:58:01;;;;;;;10.63;3.33;;;13.50;63.10;;;;;;5097649;28;20157;-79
2022/10/07 10:00:29;;;;;;;11.27;2.47;;;13.60;1.00;;;;;;5100373;28;20202;-81
2022/10/07 10:03:03;;;;;;;15.57;2.90;;;13.60;1.00;;;;;;5090558;28;20207;-80
2022/10/07 10:05:32;;;;;;;17.93;3.13;;;13.70;7.40;;;;;;5080666;28;20291;-80
2022/10/07 10:08:05;;;;;;;8.67;1.93;;;13.80;1.00;;;;;;5089108;28;20227;-80
2022/10/07 10:10:32;;;;;;;9.17;2.30;;;14.10;1.00;;;;;;5096978;28;20249;-80
2022/10/07 10:13:00;;;;;;;10.10;2.20;;;14.20;99.90;;;;;;5087134;28;20209;-79
2022/10/07 10:15:35;;;;;;;7.77;2.20;;;14.20;1.00;;;;;;5076488;28;20210;-80
2022/10/07 10:18:01;;;;;;;11.07;2.30;;;14.30;1.00;;;;;;5057940;28;20266;-79
2022/10/07 10:20:42;;;;;;;6.40;1.73;;;14.40;1.00;;;;;;5057310;28;20281;-79
2022/10/07 10:23:34;;;;;;;7.43;2.13;;;14.50;55.30;;;;;;5054651;28;20181;-79
2022/10/07 10:26:26;;;;;;;9.13;2.50;;;14.70;1.00;;;;;;5053465;28;20250;-79
2022/10/07 10:29:08;;;;;;;4.73;1.90;;;14.70;1.00;;;;;;5055164;28;20160;-78
2022/10/07 10:32:01;;;;;;;12.27;1.80;;;14.70;99.90;;;;;;5055006;28;20171;-78
2022/10/07 10:34:47;;;;;;;8.67;2.10;;;14.80;99.90;;;;;;5054993;28;20695;-78
2022/10/07 10:37:17;;;;;;;9.80;2.00;;;14.90;99.90;;;;;;5054417;28;20168;-79
2022/10/07 10:39:51;;;;;;;12.97;2.30;;;15.00;99.90;;;;;;5054898;28;20206;-78
2022/10/07 10:42:25;;;;;;;8.27;2.10;;;15.00;99.90;;;;;;5054073;28;20194;-79
2022/10/07 10:45:38;;;;;;;9.27;2.47;;;15.10;99.90;;;;;;5054943;28;20179;-79
2022/10/07 10:48:13;;;;;;;10.73;2.37;;;15.20;1.00;;;;;;5041896;28;20278;-79
2022/10/07 10:50:56;;;;;;;5.77;1.80;;;15.30;99.90;;;;;;5056052;28;20253;-79
2022/10/07 10:53:34;;;;;;;6.03;2.23;;;15.40;1.00;;;;;;5055820;28;20180;-79
2022/10/07 10:56:07;;;;;;;8.23;1.80;;;15.50;1.00;;;;;;5054811;28;20187;-78
2022/10/07 10:58:56;;;;;;;8.60;1.73;;;15.60;99.90;;;;;;5053504;28;20172;-78
2022/10/07 11:01:41;;;;;;;7.47;1.77;;;15.60;99.90;;;;;;5052678;28;20249;-77
2022/10/07 11:04:44;;;;;;;10.50;1.83;;;15.70;99.90;;;;;;5053257;28;20649;-77
2022/10/07 11:07:24;;;;;;;11.37;1.90;;;15.80;1.00;;;;;;5054810;28;20178;-76
2022/10/07 11:10:12;;;;;;;7.57;1.60;;;16.00;1.00;;;;;;5055894;28;20541;-76
2022/10/07 11:12:42;;;;;;;7.40;1.70;;;16.10;1.00;;;;;;5056406;28;20518;-76
2022/10/07 11:15:22;;;;;;;8.70;1.53;;;16.10;1.00;;;;;;5054530;28;20207;-76
2022/10/07 11:17:50;;;;;;;8.07;2.00;;;16.20;99.90;;;;;;5056550;28;20179;-76
2022/10/07 11:20:20;;;;;;;9.27;2.60;;;16.30;99.90;;;;;;5054409;28;20200;-76
2022/10/07 11:23:15;;;;;;;8.30;1.33;;;16.40;1.00;;;;;;5101033;22;20234;-80
2022/10/07 11:25:50;;;;;;;7.40;1.67;;;16.50;99.90;;;;;;5086563;28;20186;-80
2022/10/07 11:28:28;;;;;;;11.10;2.07;;;16.70;1.00;;;;;;5093247;28;20169;-79
2022/10/07 11:31:32;;;;;;;7.67;2.10;;;16.60;99.90;;;;;;5095179;28;20208;-80
2022/10/07 11:34:12;;;;;;;8.70;1.70;;;16.70;99.90;;;;;;5073875;28;20245;-80
2022/10/07 11:37:04;;;;;;;12.13;2.00;;;16.80;99.90;;;;;;5075213;28;20277;-80
2022/10/07 11:39:30;;;;;;;9.93;1.70;;;16.80;99.90;;;;;;5077647;28;20242;-80
2022/10/07 11:42:09;;;;;;;10.70;2.13;;;16.80;1.00;;;;;;5078184;28;20186;-79
2022/10/07 11:45:01;;;;;;;9.90;1.93;;;16.70;1.00;;;;;;5079195;28;20170;-79
2022/10/07 11:47:41;;;;;;;8.63;1.80;;;16.70;1.00;;;;;;5077875;28;20193;-79
2022/10/07 11:50:21;;;;;;;8.33;2.13;;;16.80;1.00;;;;;;5080668;28;20151;-80
2022/10/07 11:52:50;;;;;;;9.87;1.87;;;17.00;1.00;;;;;;5093640;28;20186;-80
2022/10/07 11:55:34;;;;;;;8.10;1.80;;;17.00;1.00;;;;;;5097237;28;20262;-80
2022/10/07 11:58:03;;;;;;;8.53;1.93;;;17.00;38.10;;;;;;5099693;28;20175;-80
2022/10/07 12:00:38;;;;;;;9.57;2.57;;;17.10;1.00;;;;;;5097958;28;20175;-80
2022/10/07 12:03:33;;;;;;;7.60;1.87;;;17.20;99.90;;;;;;5097091;28;20190;-79
2022/10/07 12:06:10;;;;;;;7.87;1.60;;;17.30;1.00;;;;;;5076371;28;20193;-80
2022/10/07 12:08:40;;;;;;;9.07;2.17;;;17.40;99.90;;;;;;5079138;28;20596;-80
2022/10/07 12:11:15;;;;;;;4.50;1.50;;;17.40;1.00;;;;;;5077764;28;20207;-80
2022/10/07 12:13:44;;;;;;;13.90;2.90;;;17.30;99.90;;;;;;5077823;28;20736;-80
2022/10/07 12:16:22;;;;;;;12.53;1.97;;;17.30;1.00;;;;;;5079114;28;20281;-80
2022/10/07 12:19:06;;;;;;;9.47;1.67;;;17.40;1.00;;;;;;5079399;28;20262;-80
2022/10/07 12:22:03;;;;;;;11.43;1.97;;;17.50;1.00;;;;;;5079340;28;20656;-81
2022/10/07 12:24:34;;;;;;;6.30;1.67;;;17.60;99.90;;;;;;5080093;28;20175;-80
2022/10/07 12:27:13;;;;;;;9.30;2.17;;;17.70;99.90;;;;;;5079428;28;20524;-80
2022/10/07 12:30:03;;;;;;;6.57;2.00;;;17.70;71.10;;;;;;5077954;28;20171;-80
2022/10/07 12:32:41;;;;;;;9.90;1.60;;;17.80;1.00;;;;;;5078933;28;20233;-81
2022/10/07 12:35:28;;;;;;;9.97;1.63;;;17.80;99.90;;;;;;5078970;28;20673;-79
2022/10/07 12:38:24;;;;;;;10.53;2.77;;;17.90;1.00;;;;;;5078771;28;20174;-80
2022/10/07 12:41:10;;;;;;;9.97;1.93;;;17.80;4.00;;;;;;5076525;28;20209;-80
2022/10/07 12:43:36;;;;;;;9.73;2.03;;;17.80;92.90;;;;;;5070544;28;20210;-80
2022/10/07 12:46:13;;;;;;;7.43;1.90;;;17.80;99.90;;;;;;5076766;28;20182;-80
2022/10/07 12:48:45;;;;;;;11.33;2.07;;;17.80;1.00;;;;;;5078375;28;20281;-80
2022/10/07 12:51:18;;;;;;;5.27;1.40;;;17.90;1.00;;;;;;5078248;28;20632;-80
2022/10/07 12:53:46;;;;;;;10.10;2.23;;;17.90;1.00;;;;;;5078671;28;20278;-80
2022/10/07 12:56:21;;;;;;;10.10;2.87;;;17.90;15.50;;;;;;5078207;28;20240;-80
2022/10/07 13:02:24;;;;;;;8.40;2.07;;;17.90;1.00;;;;;;5078433;28;20198;-80
2022/10/07 13:05:36;;;;;;;6.83;1.60;;;18.00;99.90;;;;;;5078077;28;20175;-80
2022/10/07 13:08:05;;;;;;;9.47;1.77;;;18.00;1.00;;;;;;5078326;28;20156;-80
2022/10/07 13:10:45;;;;;;;9.60;2.17;;;18.00;99.90;;;;;;5078149;28;20177;-80
2022/10/07 13:13:40;;;;;;;7.23;1.83;;;18.00;9.60;;;;;;5076386;28;20198;-80
2022/10/07 13:16:17;;;;;;;5.13;1.63;;;18.00;1.00;;;;;;5069360;28;20783;-80
2022/10/07 13:18:51;;;;;;;9.10;1.83;;;18.00;99.90;;;;;;5076575;28;20170;-80
2022/10/07 13:21:22;;;;;;;6.70;1.60;;;18.00;99.90;;;;;;5078002;28;20163;-80
2022/10/07 13:23:53;;;;;;;8.43;1.77;;;18.00;1.00;;;;;;5077608;28;20209;-80
2022/10/07 13:26:21;;;;;;;10.17;2.00;;;18.00;99.90;;;;;;5076529;28;20171;-80